Terminal Aerodrome Forecast
Issued by NWS

Home | Current Version | Previous Version | Text Only | Print | Product List | Glossary On
Versions: 1 2 3 4 5 6 7 8 9 10 11 12
000
FTUS43 KMQT 031124
TAFSAW
TAF
KSAW 031124Z 0312/0412 21004KT P6SM SCT120
     FM031500 23009KT P6SM OVC130
     FM031800 25012G19KT P6SM VCSH OVC090
     FM032000 27010G17KT 6SM -SHRA OVC060
     FM032100 28009KT 4SM -SHRA OVC045
     FM032300 34007KT P6SM VCSH OVC040
     FM040100 36007KT P6SM VCSH OVC030
     FM040300 35010G15KT P6SM OVC024
     FM040500 35012G17KT P6SM OVC018
     FM041000 36013G18KT P6SM VCSH OVC015=

USA.gov is the U.S. government's official web portal to all federal, state and local government web resources and services.